createdAt,value
2023-04-19T00:00:43.551Z,605.00
2023-04-19T00:01:43.618Z,605.00
2023-04-19T00:02:43.738Z,606.00
2023-04-19T00:03:43.792Z,604.00
2023-04-19T00:04:43.775Z,602.00
2023-04-19T00:05:43.541Z,604.00
2023-04-19T00:06:43.553Z,601.00
2023-04-19T00:07:43.532Z,600.00
2023-04-19T00:08:43.530Z,600.00
2023-04-19T00:09:43.517Z,600.00
2023-04-19T00:10:43.535Z,598.00
2023-04-19T00:11:43.515Z,597.00
2023-04-19T00:12:43.519Z,596.00
2023-04-19T00:13:43.483Z,594.00
2023-04-19T00:14:43.475Z,595.00
2023-04-19T00:15:43.474Z,597.00
2023-04-19T00:16:43.471Z,597.00
2023-04-19T00:17:43.487Z,598.00
2023-04-19T00:18:43.454Z,596.00
2023-04-19T00:19:43.470Z,597.00
2023-04-19T00:20:43.419Z,597.00
2023-04-19T00:21:43.418Z,600.00
2023-04-19T00:22:43.423Z,599.00
2023-04-19T00:23:43.402Z,598.00
2023-04-19T00:24:43.424Z,598.00
2023-04-19T00:25:43.394Z,599.00
2023-04-19T00:26:43.383Z,596.00
2023-04-19T00:27:43.381Z,595.00
2023-04-19T00:28:43.369Z,596.00
2023-04-19T00:29:43.362Z,593.00
2023-04-19T00:30:43.522Z,593.00
2023-04-19T00:31:43.351Z,592.00
2023-04-19T00:32:43.418Z,593.00
2023-04-19T00:33:43.336Z,595.00
2023-04-19T00:34:43.352Z,597.00
2023-04-19T00:35:43.334Z,600.00
2023-04-19T00:36:43.308Z,600.00
2023-04-19T00:37:43.325Z,599.00
2023-04-19T00:38:43.280Z,594.00
2023-04-19T00:39:43.355Z,591.00
2023-04-19T00:40:43.332Z,590.00
2023-04-19T00:41:43.287Z,589.00
2023-04-19T00:42:43.274Z,592.00
2023-04-19T00:43:43.270Z,595.00
2023-04-19T00:44:43.286Z,594.00
2023-04-19T00:45:43.350Z,595.00
2023-04-19T00:46:43.314Z,594.00
2023-04-19T00:47:43.252Z,596.00
2023-04-19T00:48:43.273Z,596.00
2023-04-19T00:49:43.258Z,595.00
2023-04-19T00:50:43.209Z,594.00
2023-04-19T00:51:43.196Z,591.00
2023-04-19T00:52:43.197Z,591.00
2023-04-19T00:53:43.211Z,589.00
2023-04-19T00:54:43.213Z,591.00
2023-04-19T00:55:43.179Z,591.00
2023-04-19T00:56:43.151Z,591.00
2023-04-19T00:57:43.163Z,590.00
2023-04-19T00:58:43.172Z,588.00
2023-04-19T00:59:43.170Z,587.00
2023-04-19T01:00:43.140Z,585.00
2023-04-19T01:01:43.247Z,583.00
2023-04-19T01:02:43.246Z,585.00
2023-04-19T01:03:43.286Z,585.00
2023-04-19T01:04:43.100Z,585.00
2023-04-19T01:05:43.120Z,585.00
2023-04-19T01:06:43.115Z,584.00
2023-04-19T01:07:43.097Z,585.00
2023-04-19T01:08:43.098Z,585.00
2023-04-19T01:09:43.145Z,587.00
2023-04-19T01:10:43.060Z,588.00
2023-04-19T01:11:43.702Z,587.00
2023-04-19T01:12:43.037Z,588.00
2023-04-19T01:13:43.058Z,589.00
2023-04-19T01:14:43.043Z,587.00
2023-04-19T01:15:43.059Z,587.00
2023-04-19T01:16:43.059Z,586.00
2023-04-19T01:17:43.117Z,588.00
2023-04-19T01:18:42.998Z,587.00
2023-04-19T01:19:43.026Z,587.00
2023-04-19T01:20:43.036Z,587.00
2023-04-19T01:21:42.985Z,585.00
2023-04-19T01:22:42.979Z,582.00
2023-04-19T01:23:42.987Z,581.00
2023-04-19T01:24:43.005Z,577.00
2023-04-19T01:25:43.024Z,576.00
2023-04-19T01:26:43.051Z,576.00
2023-04-19T01:27:43.034Z,577.00
2023-04-19T01:28:43.225Z,578.00
2023-04-19T01:29:43.051Z,577.00
2023-04-19T01:30:43.056Z,575.00
2023-04-19T01:31:43.201Z,573.00
2023-04-19T01:32:43.130Z,572.00
2023-04-19T01:33:43.112Z,573.00
2023-04-19T01:34:43.148Z,575.00
2023-04-19T01:35:43.168Z,577.00
2023-04-19T01:36:43.175Z,578.00
2023-04-19T01:37:43.196Z,580.00
2023-04-19T01:38:43.154Z,579.00
2023-04-19T01:39:43.194Z,579.00
2023-04-19T01:40:43.194Z,576.00
2023-04-19T01:41:43.204Z,574.00
2023-04-19T01:42:43.207Z,575.00
2023-04-19T01:43:43.246Z,574.00
2023-04-19T01:44:43.262Z,573.00
2023-04-19T01:45:43.265Z,574.00
2023-04-19T01:46:43.306Z,573.00
2023-04-19T01:47:43.311Z,571.00
2023-04-19T01:48:43.302Z,571.00
2023-04-19T01:49:43.330Z,571.00
2023-04-19T01:50:43.335Z,571.00
2023-04-19T01:51:43.340Z,572.00
2023-04-19T01:52:43.355Z,571.00
2023-04-19T01:53:43.390Z,571.00
2023-04-19T01:54:43.404Z,570.00
2023-04-19T01:55:43.399Z,570.00
2023-04-19T01:56:43.426Z,572.00
2023-04-19T01:57:43.456Z,574.00
2023-04-19T01:58:43.447Z,571.00
2023-04-19T01:59:43.516Z,571.00
2023-04-19T02:00:43.496Z,569.00
2023-04-19T02:01:43.548Z,572.00
2023-04-19T02:02:43.636Z,572.00
2023-04-19T02:03:43.730Z,571.00
2023-04-19T02:04:43.560Z,571.00
2023-04-19T02:05:43.573Z,573.00
2023-04-19T02:06:43.597Z,569.00
2023-04-19T02:07:43.594Z,568.00
2023-04-19T02:08:43.638Z,566.00
2023-04-19T02:09:43.660Z,562.00
2023-04-19T02:10:43.657Z,560.00
2023-04-19T02:11:43.697Z,563.00
2023-04-19T02:12:43.693Z,562.00
2023-04-19T02:13:43.697Z,561.00
2023-04-19T02:14:43.744Z,559.00
2023-04-19T02:15:43.739Z,559.00
2023-04-19T02:16:43.763Z,560.00
2023-04-19T02:17:43.821Z,559.00
2023-04-19T02:18:43.799Z,558.00
2023-04-19T02:19:43.823Z,557.00
2023-04-19T02:20:43.837Z,555.00
2023-04-19T02:21:43.845Z,555.00
2023-04-19T02:22:43.901Z,557.00
2023-04-19T02:23:43.875Z,557.00
2023-04-19T02:24:43.905Z,557.00
2023-04-19T02:25:43.910Z,557.00
2023-04-19T02:26:43.949Z,558.00
2023-04-19T02:27:43.950Z,561.00
2023-04-19T02:28:43.989Z,561.00
2023-04-19T02:29:43.989Z,563.00
2023-04-19T02:30:43.999Z,564.00
2023-04-19T02:31:44.052Z,564.00
2023-04-19T02:32:44.082Z,562.00
2023-04-19T02:33:44.064Z,562.00
2023-04-19T02:34:44.081Z,563.00
2023-04-19T02:35:44.100Z,563.00
2023-04-19T02:36:44.102Z,560.00
2023-04-19T02:37:44.139Z,561.00
2023-04-19T02:38:44.144Z,562.00
2023-04-19T02:39:44.192Z,564.00
2023-04-19T02:40:44.188Z,563.00
2023-04-19T02:41:44.205Z,560.00
2023-04-19T02:42:44.219Z,559.00
2023-04-19T02:43:44.266Z,559.00
2023-04-19T02:44:44.256Z,559.00
2023-04-19T02:45:44.351Z,560.00
2023-04-19T02:46:44.296Z,561.00
2023-04-19T02:47:44.362Z,559.00
2023-04-19T02:48:44.329Z,559.00
2023-04-19T02:49:44.358Z,558.00
2023-04-19T02:50:44.398Z,558.00
2023-04-19T02:51:44.402Z,557.00
2023-04-19T02:52:44.411Z,558.00
2023-04-19T02:53:44.442Z,559.00
2023-04-19T02:54:44.447Z,559.00
2023-04-19T02:55:44.468Z,559.00
2023-04-19T02:56:44.501Z,560.00
2023-04-19T02:57:44.507Z,559.00
2023-04-19T02:58:44.542Z,557.00
2023-04-19T02:59:44.546Z,557.00
2023-04-19T03:00:44.561Z,558.00
2023-04-19T03:01:44.695Z,554.00
2023-04-19T03:02:44.705Z,555.00
2023-04-19T03:03:44.761Z,556.00
2023-04-19T03:04:44.648Z,554.00
2023-04-19T03:05:44.654Z,556.00
2023-04-19T03:06:44.726Z,556.00
2023-04-19T03:07:44.828Z,554.00
2023-04-19T03:08:44.758Z,552.00
2023-04-19T03:09:44.790Z,555.00
2023-04-19T03:10:44.805Z,555.00
2023-04-19T03:11:44.813Z,554.00
2023-04-19T03:12:44.834Z,555.00
2023-04-19T03:13:44.878Z,554.00
2023-04-19T03:14:44.910Z,552.00
2023-04-19T03:15:45.014Z,552.00
2023-04-19T03:16:44.970Z,550.00
2023-04-19T03:17:45.063Z,552.00
2023-04-19T03:18:46.695Z,550.00
2023-04-19T03:19:45.009Z,549.00
2023-04-19T03:20:44.973Z,550.00
2023-04-19T03:21:44.958Z,551.00
2023-04-19T03:22:44.977Z,551.00
2023-04-19T03:23:44.953Z,550.00
2023-04-19T03:24:44.939Z,550.00
2023-04-19T03:25:44.921Z,549.00
2023-04-19T03:26:45.702Z,546.00
2023-04-19T03:27:44.920Z,545.00
2023-04-19T03:28:44.918Z,542.00
2023-04-19T03:29:45.813Z,542.00
2023-04-19T03:30:44.883Z,543.00
2023-04-19T03:31:45.126Z,547.00
2023-04-19T03:32:44.907Z,546.00
2023-04-19T03:33:45.235Z,548.00
2023-04-19T03:34:44.894Z,548.00
2023-04-19T03:35:44.892Z,549.00
2023-04-19T03:36:44.910Z,548.00
2023-04-19T03:37:44.930Z,549.00
2023-04-19T03:38:45.023Z,547.00
2023-04-19T03:39:44.995Z,547.00
2023-04-19T03:40:45.035Z,546.00
2023-04-19T03:41:45.031Z,547.00
2023-04-19T03:42:45.069Z,546.00
2023-04-19T03:43:45.289Z,546.00
2023-04-19T03:44:45.122Z,545.00
2023-04-19T03:45:45.147Z,545.00
2023-04-19T03:46:45.242Z,543.00
2023-04-19T03:47:45.309Z,541.00
2023-04-19T03:48:45.195Z,539.00
2023-04-19T03:49:45.231Z,541.00
2023-04-19T03:50:45.247Z,542.00
2023-04-19T03:51:45.297Z,542.00
2023-04-19T03:52:45.295Z,542.00
2023-04-19T03:53:45.337Z,539.00
2023-04-19T03:54:45.350Z,538.00
2023-04-19T03:55:45.413Z,541.00
2023-04-19T03:56:45.405Z,542.00
2023-04-19T03:57:45.415Z,539.00
2023-04-19T03:58:45.458Z,536.00
2023-04-19T03:59:45.613Z,535.00
2023-04-19T04:00:45.502Z,535.00
2023-04-19T04:01:45.542Z,534.00
2023-04-19T04:02:45.789Z,536.00
2023-04-19T04:03:45.891Z,538.00
2023-04-19T04:04:45.658Z,540.00
2023-04-19T04:05:45.604Z,540.00
2023-04-19T04:06:45.627Z,539.00
2023-04-19T04:07:45.682Z,541.00
2023-04-19T04:08:45.769Z,541.00
2023-04-19T04:09:45.731Z,539.00
2023-04-19T04:10:45.727Z,538.00
2023-04-19T04:11:45.752Z,534.00
2023-04-19T04:12:45.770Z,534.00
2023-04-19T04:13:45.794Z,532.00
2023-04-19T04:14:45.858Z,530.00
2023-04-19T04:15:45.845Z,530.00
2023-04-19T04:16:45.895Z,532.00
2023-04-19T04:17:45.962Z,534.00
2023-04-19T04:18:45.916Z,533.00
2023-04-19T04:19:45.948Z,535.00
2023-04-19T04:20:46.039Z,535.00
2023-04-19T04:21:46.025Z,536.00
2023-04-19T04:22:46.051Z,538.00
2023-04-19T04:23:46.053Z,536.00
2023-04-19T04:24:46.052Z,533.00
2023-04-19T04:25:46.089Z,531.00
2023-04-19T04:26:46.141Z,529.00
2023-04-19T04:27:46.153Z,529.00
2023-04-19T04:28:46.177Z,529.00
2023-04-19T04:29:46.197Z,529.00
2023-04-19T04:30:46.220Z,530.00
2023-04-19T04:31:46.269Z,528.00
2023-04-19T04:32:46.328Z,529.00
2023-04-19T04:33:46.314Z,527.00
2023-04-19T04:34:46.323Z,528.00
2023-04-19T04:35:46.355Z,528.00
2023-04-19T04:36:46.387Z,531.00
2023-04-19T04:37:46.427Z,531.00
2023-04-19T04:38:46.429Z,529.00
2023-04-19T04:39:46.521Z,527.00
2023-04-19T04:40:46.606Z,525.00
2023-04-19T04:41:46.526Z,528.00
2023-04-19T04:42:46.564Z,529.00
2023-04-19T04:43:46.612Z,529.00
2023-04-19T04:44:46.652Z,528.00
2023-04-19T04:45:46.669Z,529.00
2023-04-19T04:46:46.681Z,530.00
2023-04-19T04:47:46.737Z,530.00
2023-04-19T04:48:46.755Z,528.00
2023-04-19T04:49:46.803Z,527.00
2023-04-19T04:50:46.803Z,528.00
2023-04-19T04:51:46.843Z,527.00
2023-04-19T04:52:46.892Z,525.00
2023-04-19T04:53:46.904Z,523.00
2023-04-19T04:54:46.931Z,524.00
2023-04-19T04:55:46.943Z,522.00
2023-04-19T04:56:47.017Z,523.00
2023-04-19T04:57:47.032Z,522.00
2023-04-19T04:58:47.067Z,519.00
2023-04-19T04:59:47.095Z,520.00
2023-04-19T05:00:47.273Z,519.00
2023-04-19T05:01:47.209Z,519.00
2023-04-19T05:02:47.298Z,521.00
2023-04-19T05:03:47.229Z,522.00
2023-04-19T05:04:47.342Z,523.00
2023-04-19T05:05:47.254Z,524.00
2023-04-19T05:06:47.264Z,524.00
2023-04-19T05:07:47.326Z,523.00
2023-04-19T05:08:47.315Z,523.00
2023-04-19T05:09:47.384Z,524.00
2023-04-19T05:10:47.379Z,521.00
2023-04-19T05:11:47.381Z,520.00
2023-04-19T05:12:47.503Z,517.00
2023-04-19T05:13:47.442Z,516.00
2023-04-19T05:14:47.459Z,516.00
2023-04-19T05:15:47.468Z,516.00
2023-04-19T05:16:47.514Z,518.00
2023-04-19T05:17:47.572Z,517.00
2023-04-19T05:18:47.532Z,517.00
2023-04-19T05:19:47.558Z,517.00
2023-04-19T05:20:47.616Z,518.00
2023-04-19T05:21:47.600Z,517.00
2023-04-19T05:22:47.642Z,518.00
2023-04-19T05:23:47.669Z,517.00
2023-04-19T05:24:47.674Z,517.00
2023-04-19T05:25:47.688Z,516.00
2023-04-19T05:26:47.692Z,518.00
2023-04-19T05:27:47.742Z,518.00
2023-04-19T05:28:47.748Z,518.00
2023-04-19T05:29:47.739Z,519.00
2023-04-19T05:30:47.748Z,518.00
2023-04-19T05:31:47.858Z,517.00
2023-04-19T05:32:47.881Z,515.00
2023-04-19T05:33:47.840Z,515.00
2023-04-19T05:34:47.787Z,517.00
2023-04-19T05:35:47.887Z,517.00
2023-04-19T05:36:47.866Z,525.00
2023-04-19T05:37:47.791Z,536.00
2023-04-19T05:38:47.843Z,547.00
2023-04-19T05:39:47.839Z,568.00
2023-04-19T05:40:47.919Z,588.00
2023-04-19T05:41:47.961Z,610.00
2023-04-19T05:42:48.817Z,665.00
2023-04-19T05:43:48.298Z,722.00
2023-04-19T05:44:48.178Z,742.00
2023-04-19T05:45:48.188Z,791.00
2023-04-19T05:46:48.232Z,811.00
2023-04-19T05:47:48.382Z,836.00
2023-04-19T05:48:48.345Z,871.00
2023-04-19T05:49:48.498Z,890.00
2023-04-19T05:50:48.419Z,905.00
2023-04-19T05:51:48.644Z,960.00
2023-04-19T05:52:48.562Z,978.00
2023-04-19T05:53:48.804Z,1062.00
2023-04-19T05:54:48.811Z,1081.00
2023-04-19T05:55:49.300Z,1110.00
2023-04-19T05:56:48.594Z,1133.00
2023-04-19T05:57:48.622Z,1170.00
2023-04-19T05:58:48.791Z,1204.00
2023-04-19T05:59:49.328Z,1234.00
2023-04-19T06:00:48.653Z,1262.00
2023-04-19T06:01:48.688Z,1288.00
2023-04-19T06:02:48.783Z,1314.00
2023-04-19T06:03:48.825Z,1337.00
2023-04-19T06:04:48.765Z,1358.00
2023-04-19T06:05:48.704Z,1389.00
2023-04-19T06:06:48.631Z,1477.00
2023-04-19T06:07:55.188Z,1479.00
2023-04-19T06:08:49.629Z,1494.00
2023-04-19T06:09:48.690Z,1516.00
2023-04-19T06:10:54.055Z,1577.00
2023-04-19T06:11:51.251Z,1603.00
2023-04-19T06:12:48.596Z,1620.00
2023-04-19T06:13:48.578Z,1631.00
2023-04-19T06:14:48.575Z,1642.00
2023-04-19T06:15:48.857Z,1687.00
2023-04-19T06:16:48.620Z,1705.00
2023-04-19T06:17:48.613Z,1722.00
2023-04-19T06:18:48.585Z,1737.00
2023-04-19T06:19:48.553Z,1788.00
2023-04-19T06:20:48.538Z,1802.00
2023-04-19T06:21:48.523Z,1816.00
2023-04-19T06:22:48.536Z,1861.00
2023-04-19T06:23:48.536Z,1877.00
2023-04-19T06:24:48.529Z,1892.00
2023-04-19T06:25:48.535Z,1920.00
2023-04-19T06:26:48.490Z,1962.00
2023-04-19T06:27:48.495Z,1979.00
2023-04-19T06:28:48.482Z,1995.00
2023-04-19T06:29:50.516Z,2011.00
2023-04-19T06:30:48.460Z,2036.00
2023-04-19T06:31:48.552Z,2060.00
2023-04-19T06:32:48.479Z,2080.00
2023-04-19T06:33:48.444Z,1487.00
2023-04-19T06:34:48.800Z,1236.00
2023-04-19T06:35:48.423Z,1121.00
2023-04-19T06:36:48.429Z,1041.00
2023-04-19T06:37:49.431Z,1008.00
2023-04-19T06:38:48.442Z,971.00
2023-04-19T06:39:48.423Z,942.00
2023-04-19T06:40:48.415Z,934.00
2023-04-19T06:41:48.439Z,935.00
2023-04-19T06:42:48.420Z,927.00
2023-04-19T06:43:48.487Z,906.00
2023-04-19T06:44:48.489Z,821.00
2023-04-19T06:45:48.573Z,820.00
2023-04-19T06:46:48.595Z,707.00
2023-04-19T06:47:48.645Z,718.00
2023-04-19T06:48:48.667Z,702.00
2023-04-19T06:49:48.766Z,726.00
2023-04-19T06:50:48.726Z,726.00
2023-04-19T06:51:48.742Z,727.00
2023-04-19T06:52:48.705Z,686.00
2023-04-19T06:53:48.704Z,671.00
2023-04-19T06:54:48.728Z,671.00
2023-04-19T06:55:48.781Z,652.00
2023-04-19T06:56:48.736Z,629.00
2023-04-19T06:57:48.779Z,693.00
2023-04-19T06:58:48.769Z,712.00
2023-04-19T06:59:48.791Z,714.00
2023-04-19T07:00:48.785Z,713.00
2023-04-19T07:01:49.021Z,717.00
2023-04-19T07:02:48.997Z,725.00
2023-04-19T07:03:49.198Z,732.00
2023-04-19T07:04:49.083Z,750.00
2023-04-19T07:05:48.923Z,743.00
2023-04-19T07:06:48.968Z,739.00
2023-04-19T07:07:49.036Z,739.00
2023-04-19T07:08:50.067Z,743.00
2023-04-19T07:09:49.222Z,748.00
2023-04-19T07:10:49.215Z,750.00
2023-04-19T07:11:49.253Z,751.00
2023-04-19T07:12:49.337Z,743.00
2023-04-19T07:13:49.351Z,734.00
2023-04-19T07:14:49.410Z,720.00
2023-04-19T07:15:49.564Z,711.00
2023-04-19T07:16:50.872Z,722.00
2023-04-19T07:17:49.578Z,724.00
2023-04-19T07:18:49.652Z,717.00
2023-04-19T07:19:50.283Z,724.00
2023-04-19T07:20:49.844Z,716.00
2023-04-19T07:21:49.870Z,713.00
2023-04-19T07:22:49.939Z,709.00
2023-04-19T07:23:49.912Z,706.00
2023-04-19T07:24:50.006Z,709.00
2023-04-19T07:25:50.020Z,679.00
2023-04-19T07:26:50.805Z,678.00
2023-04-19T07:27:50.032Z,640.00
2023-04-19T07:28:49.991Z,652.00
2023-04-19T07:29:50.368Z,673.00
2023-04-19T07:30:50.090Z,712.00
2023-04-19T07:31:50.070Z,693.00
2023-04-19T07:32:50.127Z,690.00
2023-04-19T07:33:50.045Z,708.00
2023-04-19T07:34:50.140Z,781.00
2023-04-19T07:35:50.315Z,851.00
2023-04-19T07:36:50.078Z,921.00
2023-04-19T07:37:50.167Z,932.00
2023-04-19T07:38:50.212Z,922.00
2023-04-19T07:39:50.319Z,790.00
2023-04-19T07:40:50.863Z,853.00
2023-04-19T07:41:50.375Z,874.00
2023-04-19T07:42:50.441Z,853.00
2023-04-19T07:43:50.531Z,835.00
2023-04-19T07:44:50.537Z,827.00
2023-04-19T07:45:50.860Z,862.00
2023-04-19T07:46:50.762Z,895.00
2023-04-19T07:47:50.866Z,967.00
2023-04-19T07:48:50.779Z,1002.00
2023-04-19T07:49:50.826Z,1016.00
2023-04-19T07:50:51.303Z,1063.00
2023-04-19T07:51:50.892Z,1082.00
2023-04-19T07:52:50.903Z,1107.00
2023-04-19T07:53:50.992Z,1130.00
2023-04-19T07:54:50.959Z,1149.00
2023-04-19T07:55:50.936Z,1165.00
2023-04-19T07:56:50.926Z,1216.00
2023-04-19T07:57:51.792Z,1241.00
2023-04-19T07:59:04.263Z,1252.00
2023-04-19T07:59:51.965Z,1257.00
2023-04-19T08:00:50.995Z,1263.00
2023-04-19T08:01:51.017Z,1283.00
2023-04-19T08:02:51.166Z,1302.00
2023-04-19T08:03:51.203Z,1316.00
2023-04-19T08:04:51.161Z,1335.00
2023-04-19T08:05:51.007Z,1361.00
2023-04-19T08:06:50.906Z,1388.00
2023-04-19T08:07:51.785Z,1411.00
2023-04-19T08:08:50.963Z,1424.00
2023-04-19T08:09:51.116Z,1442.00
2023-04-19T08:10:51.076Z,1475.00
2023-04-19T08:11:51.097Z,1512.00
2023-04-19T08:14:04.716Z,1548.00
2023-04-19T08:15:02.612Z,1574.00
2023-04-19T08:17:14.492Z,1606.00
2023-04-19T08:17:52.132Z,1621.00
2023-04-19T08:18:51.109Z,1633.00
2023-04-19T08:19:51.320Z,1650.00
2023-04-19T08:20:51.319Z,1665.00
2023-04-19T08:21:51.115Z,1696.00
2023-04-19T08:22:51.090Z,1726.00
2023-04-19T08:23:53.509Z,1754.00
2023-04-19T08:24:51.098Z,1769.00
2023-04-19T08:25:51.066Z,1769.00
2023-04-19T08:26:51.057Z,1758.00
2023-04-19T08:27:51.063Z,1751.00
2023-04-19T08:28:51.030Z,1739.00
2023-04-19T08:29:51.072Z,1732.00
2023-04-19T08:30:51.345Z,1725.00
2023-04-19T08:31:51.095Z,1714.00
2023-04-19T08:32:51.089Z,1702.00
2023-04-19T08:33:51.018Z,1695.00
2023-04-19T08:34:51.138Z,1681.00
2023-04-19T08:35:50.989Z,1671.00
2023-04-19T08:37:00.070Z,1664.00
2023-04-19T08:37:52.079Z,1655.00
2023-04-19T08:39:02.021Z,1651.00
2023-04-19T08:39:52.351Z,1641.00
2023-04-19T08:40:51.163Z,1635.00
2023-04-19T08:42:02.965Z,1634.00
2023-04-19T08:42:52.832Z,1632.00
2023-04-19T08:43:50.931Z,1641.00
2023-04-19T08:45:51.397Z,1766.00
2023-04-19T08:46:50.983Z,1773.00
2023-04-19T08:47:59.664Z,1791.00
2023-04-19T08:48:51.951Z,1792.00
2023-04-19T08:50:00.418Z,1791.00
2023-04-19T08:51:03.444Z,1792.00
2023-04-19T08:51:51.919Z,1791.00
2023-04-19T08:52:56.147Z,1792.00
2023-04-19T08:53:51.880Z,1785.00
2023-04-19T08:54:51.336Z,1786.00
2023-04-19T08:56:08.761Z,1787.00
2023-04-19T08:56:51.839Z,1781.00
2023-04-19T08:57:50.817Z,1777.00
2023-04-19T08:59:01.024Z,1769.00
2023-04-19T08:59:51.840Z,1764.00
2023-04-19T09:00:50.885Z,1758.00
2023-04-19T09:01:50.840Z,1753.00
2023-04-19T09:02:51.036Z,1752.00
2023-04-19T09:04:04.773Z,1745.00
2023-04-19T09:04:52.008Z,1741.00
2023-04-19T09:05:51.573Z,1730.00
2023-04-19T09:06:50.757Z,1727.00
2023-04-19T09:07:50.760Z,1725.00
2023-04-19T09:08:50.754Z,1724.00
2023-04-19T09:10:01.963Z,1715.00
2023-04-19T09:10:51.734Z,1705.00
2023-04-19T09:11:50.741Z,1698.00
2023-04-19T09:12:50.727Z,1691.00
2023-04-19T09:13:51.796Z,1688.00
2023-04-19T09:15:01.209Z,1682.00
2023-04-19T09:15:51.716Z,1674.00
2023-04-19T09:16:50.695Z,1675.00
2023-04-19T09:17:50.718Z,1670.00
2023-04-19T09:18:59.972Z,1669.00
2023-04-19T09:19:51.821Z,1668.00
2023-04-19T09:20:50.693Z,1661.00
2023-04-19T09:21:50.647Z,1582.00
2023-04-19T09:22:50.672Z,1479.00
2023-04-19T09:23:50.637Z,1373.00
2023-04-19T09:26:50.625Z,1264.00
2023-04-19T09:27:50.608Z,1222.00
2023-04-19T09:28:50.674Z,1187.00
2023-04-19T09:29:50.595Z,1173.00
2023-04-19T09:31:03.128Z,1135.00
2023-04-19T09:31:52.371Z,1123.00
2023-04-19T09:32:50.727Z,1137.00
2023-04-19T09:33:50.575Z,1177.00
2023-04-19T09:34:51.356Z,1173.00
2023-04-19T09:35:51.343Z,1162.00
2023-04-19T09:37:00.510Z,1162.00
2023-04-19T09:38:51.608Z,1173.00
2023-04-19T09:39:50.616Z,1175.00
2023-04-19T09:40:50.656Z,1189.00
2023-04-19T09:41:50.569Z,1182.00
2023-04-19T09:45:50.910Z,1191.00
2023-04-19T09:46:53.089Z,1186.00
2023-04-19T09:47:50.561Z,1185.00
2023-04-19T09:48:50.513Z,1184.00
2023-04-19T09:49:50.815Z,1177.00
2023-04-19T09:50:57.379Z,1175.00
2023-04-19T09:51:51.845Z,1164.00
2023-04-19T09:52:50.501Z,1149.00
2023-04-19T09:53:50.453Z,1139.00
2023-04-19T09:54:50.490Z,1140.00
2023-04-19T09:56:00.229Z,1146.00
2023-04-19T09:56:51.904Z,1135.00
2023-04-19T09:57:50.467Z,1129.00
2023-04-19T09:58:54.607Z,1124.00
2023-04-19T09:59:51.435Z,1115.00
2023-04-19T10:00:55.032Z,1112.00
2023-04-19T10:01:51.879Z,1119.00
2023-04-19T10:02:52.106Z,1122.00
2023-04-19T10:03:51.523Z,1122.00
2023-04-19T10:05:51.927Z,1112.00
2023-04-19T10:07:13.987Z,1112.00
2023-04-19T10:07:51.411Z,1115.00
2023-04-19T10:08:50.379Z,1126.00
2023-04-19T10:11:52.135Z,1150.00
2023-04-19T10:13:07.473Z,1153.00
2023-04-19T10:13:51.341Z,1149.00
2023-04-19T10:14:50.310Z,1140.00
2023-04-19T10:15:54.049Z,1138.00
2023-04-19T10:16:51.350Z,1124.00
2023-04-19T10:17:50.374Z,1119.00
2023-04-19T10:18:50.691Z,1120.00
2023-04-19T10:19:50.279Z,1110.00
2023-04-19T10:20:50.263Z,1099.00
2023-04-19T10:21:50.264Z,1093.00
2023-04-19T10:22:50.275Z,1090.00
2023-04-19T10:23:50.286Z,1093.00
2023-04-19T10:24:50.238Z,1102.00
2023-04-19T10:25:50.244Z,1107.00
2023-04-19T10:26:50.250Z,1124.00
2023-04-19T10:27:50.257Z,1203.00
2023-04-19T10:28:50.235Z,1215.00
2023-04-19T10:29:50.211Z,1220.00
2023-04-19T10:30:50.205Z,1222.00
2023-04-19T10:31:50.412Z,1224.00
2023-04-19T10:32:50.314Z,1230.00
2023-04-19T10:33:50.291Z,1228.00
2023-04-19T10:34:50.333Z,1231.00
2023-04-19T10:35:50.327Z,1230.00
2023-04-19T10:36:50.877Z,1233.00
2023-04-19T10:37:50.399Z,1233.00
2023-04-19T10:38:50.398Z,1236.00
2023-04-19T10:39:50.412Z,1238.00
2023-04-19T10:40:50.896Z,1237.00
2023-04-19T10:41:50.499Z,1239.00
2023-04-19T10:42:50.508Z,1239.00
2023-04-19T10:43:50.541Z,1242.00
2023-04-19T10:44:50.577Z,1238.00
2023-04-19T10:45:50.932Z,1236.00
2023-04-19T10:46:50.892Z,1233.00
2023-04-19T10:47:50.729Z,1230.00
2023-04-19T10:48:50.748Z,1232.00
2023-04-19T10:49:50.697Z,1233.00
2023-04-19T10:50:50.762Z,1233.00
2023-04-19T10:51:50.778Z,1229.00
2023-04-19T10:52:50.801Z,1229.00
2023-04-19T10:53:50.900Z,1225.00
2023-04-19T10:54:50.861Z,1220.00
2023-04-19T10:55:50.907Z,1225.00
2023-04-19T10:56:51.033Z,1227.00
2023-04-19T10:57:51.889Z,1224.00
2023-04-19T10:58:50.985Z,1220.00
2023-04-19T10:59:51.829Z,1221.00
2023-04-19T11:00:51.064Z,1220.00
2023-04-19T11:01:51.222Z,1217.00
2023-04-19T11:02:51.267Z,1213.00
2023-04-19T11:03:51.303Z,1215.00
2023-04-19T11:04:51.197Z,1217.00
2023-04-19T11:05:51.341Z,1216.00
2023-04-19T11:06:51.376Z,1216.00
2023-04-19T11:07:51.344Z,1215.00
2023-04-19T11:08:51.326Z,1212.00
2023-04-19T11:09:51.452Z,1207.00
2023-04-19T11:10:53.278Z,1203.00
2023-04-19T11:11:51.967Z,1203.00
2023-04-19T11:12:51.471Z,1201.00
2023-04-19T11:13:51.500Z,1202.00
2023-04-19T11:14:51.571Z,1201.00
2023-04-19T11:15:51.644Z,1196.00
2023-04-19T11:16:51.712Z,1194.00
2023-04-19T11:18:00.949Z,1192.00
2023-04-19T11:18:52.666Z,1194.00
2023-04-19T11:19:51.672Z,1192.00
2023-04-19T11:20:51.644Z,1191.00
2023-04-19T11:21:51.926Z,1191.00
2023-04-19T11:22:51.648Z,1189.00
2023-04-19T11:23:51.616Z,1185.00
2023-04-19T11:24:51.620Z,1185.00
2023-04-19T11:25:51.628Z,1184.00
2023-04-19T11:26:54.026Z,1182.00
2023-04-19T11:27:51.588Z,1183.00
2023-04-19T11:28:51.571Z,1182.00
2023-04-19T11:29:51.576Z,1184.00
2023-04-19T11:30:51.552Z,1185.00
2023-04-19T11:31:51.639Z,1184.00
2023-04-19T11:32:51.619Z,1184.00
2023-04-19T11:33:51.561Z,1182.00
2023-04-19T11:34:51.537Z,1183.00
2023-04-19T11:35:51.542Z,1182.00
2023-04-19T11:36:51.556Z,1181.00
2023-04-19T11:37:51.517Z,1179.00
2023-04-19T11:38:51.497Z,1182.00
2023-04-19T11:39:51.511Z,1182.00
2023-04-19T11:40:51.478Z,1183.00
2023-04-19T11:41:51.513Z,1183.00
2023-04-19T11:42:51.475Z,1182.00
2023-04-19T11:43:51.494Z,1181.00
2023-04-19T11:44:51.459Z,1182.00
2023-04-19T11:45:51.478Z,1178.00
2023-04-19T11:46:51.509Z,1177.00
2023-04-19T11:47:51.524Z,1179.00
2023-04-19T11:48:51.493Z,1177.00
2023-04-19T11:49:51.471Z,1178.00
2023-04-19T11:50:51.421Z,1176.00
2023-04-19T11:51:51.431Z,1171.00
2023-04-19T11:52:51.410Z,1171.00
2023-04-19T11:53:51.439Z,1170.00
2023-04-19T11:54:51.388Z,1168.00
2023-04-19T11:55:51.502Z,1171.00
2023-04-19T11:56:51.380Z,1171.00
2023-04-19T11:57:51.408Z,1168.00
2023-04-19T11:58:51.418Z,1163.00
2023-04-19T11:59:51.379Z,1164.00
2023-04-19T12:00:51.380Z,1166.00
2023-04-19T12:01:51.905Z,1166.00
2023-04-19T12:02:51.531Z,1167.00
2023-04-19T12:03:51.765Z,1169.00
2023-04-19T12:04:51.767Z,1164.00
2023-04-19T12:05:51.658Z,1160.00
2023-04-19T12:06:51.917Z,1157.00
2023-04-19T12:07:51.719Z,1156.00
2023-04-19T12:08:51.802Z,1155.00
2023-04-19T12:09:51.838Z,1154.00
2023-04-19T12:10:51.887Z,1156.00
2023-04-19T12:11:52.416Z,1158.00
2023-04-19T12:12:51.979Z,1155.00
2023-04-19T12:13:52.043Z,1152.00
2023-04-19T12:14:52.120Z,1151.00
2023-04-19T12:15:52.138Z,1149.00
2023-04-19T12:16:52.308Z,1148.00
2023-04-19T12:17:57.380Z,1147.00
2023-04-19T12:18:53.287Z,1142.00
2023-04-19T12:19:52.221Z,1145.00
2023-04-19T12:20:52.219Z,1142.00
2023-04-19T12:21:52.202Z,1140.00
2023-04-19T12:22:52.185Z,1139.00
2023-04-19T12:23:52.193Z,1137.00
2023-04-19T12:24:52.191Z,1135.00
2023-04-19T12:25:52.198Z,1129.00
2023-04-19T12:26:54.601Z,1127.00
2023-04-19T12:27:52.169Z,1125.00
2023-04-19T12:28:52.162Z,1123.00
2023-04-19T12:29:52.159Z,1122.00
2023-04-19T12:30:52.153Z,1125.00